createdAt,value
2019-06-26T00:01:46.777Z,9.50
2019-06-26T00:04:49.048Z,9.60
2019-06-26T00:07:51.197Z,9.60
2019-06-26T00:10:55.778Z,9.50
2019-06-26T00:13:57.837Z,9.90
2019-06-26T00:16:59.943Z,9.60
2019-06-26T00:20:02.344Z,10.60
2019-06-26T00:23:04.886Z,9.90
2019-06-26T00:26:07.286Z,10.50
2019-06-26T00:29:09.453Z,11.00
2019-06-26T00:32:11.530Z,10.10
2019-06-26T00:35:13.874Z,10.00
2019-06-26T00:38:16.056Z,9.60
2019-06-26T00:41:18.695Z,9.80
2019-06-26T00:44:20.743Z,9.80
2019-06-26T00:47:22.762Z,10.60
2019-06-26T00:50:25.244Z,9.90
2019-06-26T00:53:29.825Z,10.40
2019-06-26T00:56:31.974Z,10.30
2019-06-26T00:59:36.744Z,11.40
2019-06-26T01:02:38.746Z,10.80
2019-06-26T01:05:41.014Z,10.60
2019-06-26T01:08:43.047Z,10.60
2019-06-26T01:11:45.059Z,10.70
2019-06-26T01:14:47.076Z,10.60
2019-06-26T01:17:49.194Z,10.90
2019-06-26T01:20:51.262Z,11.10
2019-06-26T01:23:53.367Z,11.20
2019-06-26T01:26:55.355Z,11.10
2019-06-26T01:30:03.619Z,11.00
2019-06-26T01:33:06.936Z,11.10
2019-06-26T01:36:09.088Z,11.20
2019-06-26T01:39:11.127Z,11.20
2019-06-26T01:42:13.171Z,10.70
2019-06-26T01:45:15.245Z,10.40
2019-06-26T01:48:17.474Z,11.10
2019-06-26T01:51:19.533Z,11.30
2019-06-26T01:54:24.102Z,11.00
2019-06-26T01:57:26.209Z,10.80
2019-06-26T02:00:28.312Z,10.80
2019-06-26T02:03:30.440Z,11.60
2019-06-26T02:06:32.493Z,10.60
2019-06-26T02:09:34.531Z,12.30
2019-06-26T02:12:39.035Z,12.40
2019-06-26T02:15:41.356Z,11.60
2019-06-26T02:18:43.477Z,11.20
2019-06-26T02:21:45.617Z,11.30
2019-06-26T02:24:47.573Z,10.80
2019-06-26T02:27:49.566Z,11.20
2019-06-26T02:30:51.699Z,10.70
2019-06-26T02:33:53.837Z,10.80
2019-06-26T02:36:55.849Z,11.00
2019-06-26T02:39:58.047Z,11.90
2019-06-26T02:43:00.072Z,11.60
2019-06-26T02:46:02.189Z,10.90
2019-06-26T02:49:04.666Z,11.10
2019-06-26T02:52:06.835Z,11.30
2019-06-26T02:55:08.924Z,12.30
2019-06-26T02:58:11.213Z,10.90
2019-06-26T03:01:13.319Z,11.40
2019-06-26T03:04:15.435Z,11.60
2019-06-26T03:07:17.479Z,11.70
2019-06-26T03:10:22.350Z,12.10
2019-06-26T03:13:25.346Z,12.10
2019-06-26T03:16:27.476Z,12.50
2019-06-26T03:19:29.501Z,11.90
2019-06-26T03:22:34.052Z,12.20
2019-06-26T03:25:36.071Z,11.10
2019-06-26T03:28:38.066Z,11.20
2019-06-26T03:31:40.152Z,12.20
2019-06-26T03:34:42.162Z,11.90
2019-06-26T03:37:46.834Z,11.80
2019-06-26T03:40:48.826Z,11.70
2019-06-26T03:43:50.882Z,11.00
2019-06-26T03:46:52.995Z,10.80
2019-06-26T03:49:55.419Z,13.60
2019-06-26T03:52:57.473Z,12.60
2019-06-26T03:55:59.600Z,12.70
2019-06-26T03:59:01.684Z,12.20
2019-06-26T04:02:04.067Z,12.50
2019-06-26T04:05:06.112Z,12.40
2019-06-26T04:08:08.590Z,13.10
2019-06-26T04:11:45.101Z,12.90
2019-06-26T04:14:47.134Z,17.80
2019-06-26T04:17:49.158Z,44.90
2019-06-26T04:20:51.190Z,13.50
2019-06-26T04:23:55.778Z,13.10
2019-06-26T04:26:57.850Z,13.20
2019-06-26T04:30:02.332Z,13.50
2019-06-26T04:33:05.104Z,12.80
2019-06-26T04:36:07.438Z,13.70
2019-06-26T04:39:09.944Z,13.00
2019-06-26T04:42:11.992Z,13.30
2019-06-26T04:45:13.986Z,12.10
2019-06-26T04:48:16.339Z,12.40
2019-06-26T04:51:18.470Z,12.20
2019-06-26T04:54:20.614Z,12.60
2019-06-26T04:57:25.266Z,12.60
2019-06-26T05:00:27.394Z,12.90
2019-06-26T05:03:29.409Z,13.70
2019-06-26T05:06:33.976Z,15.00
2019-06-26T05:09:36.107Z,14.40
2019-06-26T05:12:38.215Z,15.10
2019-06-26T05:15:40.317Z,14.00
2019-06-26T05:18:42.386Z,13.50
2019-06-26T05:21:44.401Z,13.80
2019-06-26T05:24:46.658Z,12.80
2019-06-26T05:27:48.715Z,13.20
2019-06-26T05:30:50.725Z,13.40
2019-06-26T05:33:52.835Z,14.20
2019-06-26T05:36:54.899Z,14.50
2019-06-26T05:39:57.098Z,13.90
2019-06-26T05:42:59.148Z,13.60
2019-06-26T05:46:04.033Z,14.30
2019-06-26T05:49:06.276Z,13.70
2019-06-26T05:52:08.289Z,13.50
2019-06-26T05:55:10.435Z,14.70
2019-06-26T05:58:14.036Z,13.10
2019-06-26T06:01:16.210Z,14.10
2019-06-26T06:04:18.414Z,14.60
2019-06-26T06:07:20.728Z,13.00
2019-06-26T06:10:23.323Z,13.80
2019-06-26T06:13:30.685Z,12.40
2019-06-26T06:16:46.625Z,10.30
2019-06-26T06:19:50.155Z,10.00
2019-06-26T06:22:52.248Z,10.30
2019-06-26T06:25:54.363Z,9.40
2019-06-26T06:28:56.483Z,11.00
2019-06-26T06:31:58.651Z,9.50
2019-06-26T06:35:01.027Z,9.70
2019-06-26T06:38:03.363Z,9.20
2019-06-26T06:41:05.535Z,8.80
2019-06-26T06:44:07.506Z,8.40
2019-06-26T06:47:09.568Z,9.20
2019-06-26T06:50:11.630Z,9.80
2019-06-26T06:53:14.029Z,8.50
2019-06-26T06:56:16.150Z,8.90
2019-06-26T06:59:20.865Z,8.40
2019-06-26T07:02:22.909Z,7.60
2019-06-26T07:05:24.979Z,8.00
2019-06-26T07:08:27.031Z,8.10
2019-06-26T07:11:34.184Z,7.80
2019-06-26T07:14:38.742Z,7.70
2019-06-26T07:17:51.914Z,8.00
2019-06-26T07:20:53.996Z,8.00
2019-06-26T07:23:56.027Z,8.10
2019-06-26T07:26:58.019Z,8.30
2019-06-26T07:30:00.014Z,8.20
2019-06-26T07:33:02.055Z,9.10
2019-06-26T07:36:04.269Z,8.70
2019-06-26T07:39:06.283Z,9.00
2019-06-26T07:42:08.303Z,9.20
2019-06-26T07:45:10.320Z,8.60
2019-06-26T07:48:14.864Z,9.40
2019-06-26T07:51:16.960Z,9.80
2019-06-26T07:54:19.003Z,9.00
2019-06-26T07:57:21.146Z,9.50
2019-06-26T08:00:23.163Z,9.60
2019-06-26T08:03:25.419Z,8.70
2019-06-26T08:06:27.531Z,9.40
2019-06-26T08:09:32.007Z,8.90
2019-06-26T08:12:34.374Z,9.10
2019-06-26T08:15:36.484Z,9.20
2019-06-26T08:18:38.904Z,8.80
2019-06-26T08:21:46.591Z,9.30
2019-06-26T08:24:48.956Z,9.50
2019-06-26T08:27:50.940Z,9.00
2019-06-26T08:30:55.531Z,8.90
2019-06-26T08:34:02.666Z,8.70
2019-06-26T08:37:04.715Z,8.50
2019-06-26T08:40:06.839Z,8.40
2019-06-26T08:43:10.045Z,9.00
2019-06-26T08:46:12.197Z,8.40
2019-06-26T08:49:24.678Z,8.30
2019-06-26T08:52:28.710Z,9.00
2019-06-26T08:55:33.296Z,7.50
2019-06-26T08:58:35.440Z,7.80
2019-06-26T09:01:37.485Z,8.00
2019-06-26T09:04:39.638Z,8.00
2019-06-26T09:07:41.676Z,8.10
2019-06-26T09:10:44.947Z,8.60
2019-06-26T09:13:47.517Z,9.00
2019-06-26T09:16:54.686Z,8.60
2019-06-26T09:19:56.722Z,9.00
2019-06-26T09:22:58.683Z,8.80
2019-06-26T09:26:00.861Z,9.40
2019-06-26T09:29:05.493Z,8.60
2019-06-26T09:32:07.637Z,8.80
2019-06-26T09:35:12.261Z,8.50
2019-06-26T09:38:14.597Z,9.10
2019-06-26T09:41:16.576Z,8.50
2019-06-26T09:44:18.720Z,9.20
2019-06-26T09:47:20.676Z,8.80
2019-06-26T09:50:22.884Z,9.00
2019-06-26T09:53:24.997Z,8.80
2019-06-26T09:56:27.097Z,8.70
2019-06-26T09:59:29.337Z,8.20
2019-06-26T10:02:31.482Z,8.60
2019-06-26T10:05:33.562Z,7.50
2019-06-26T10:08:40.711Z,8.10
2019-06-26T10:11:42.750Z,8.00
2019-06-26T10:14:47.579Z,8.20
2019-06-26T10:17:50.309Z,7.80
2019-06-26T10:20:52.315Z,7.90
2019-06-26T10:23:54.462Z,7.40
2019-06-26T10:26:56.564Z,7.80
2019-06-26T10:29:58.781Z,7.80
2019-06-26T10:33:01.020Z,7.50
2019-06-26T10:36:03.079Z,7.40
2019-06-26T10:39:05.203Z,7.30
2019-06-26T10:42:10.802Z,7.20
2019-06-26T10:45:12.953Z,7.60
2019-06-26T10:48:15.433Z,6.80
2019-06-26T10:51:29.321Z,6.80
2019-06-26T10:54:33.979Z,7.60
2019-06-26T10:57:36.131Z,6.80
2019-06-26T11:00:40.699Z,7.50
2019-06-26T11:03:42.827Z,7.20
2019-06-26T11:06:44.869Z,7.10
2019-06-26T11:09:54.476Z,7.40
2019-06-26T11:12:56.594Z,6.40
2019-06-26T11:15:58.664Z,6.90
2019-06-26T11:19:00.930Z,6.90
2019-06-26T11:22:03.220Z,7.10
2019-06-26T11:25:05.615Z,6.70
2019-06-26T11:28:08.319Z,7.20
2019-06-26T11:31:10.301Z,7.20
2019-06-26T11:34:14.856Z,7.00
2019-06-26T11:37:35.125Z,7.00
2019-06-26T11:40:37.255Z,7.30
2019-06-26T11:43:39.362Z,7.40
2019-06-26T11:46:41.463Z,8.00
2019-06-26T11:49:58.928Z,7.40
2019-06-26T11:53:02.697Z,7.80
2019-06-26T11:56:04.795Z,7.00
2019-06-26T11:59:07.637Z,6.90
2019-06-26T12:02:09.878Z,6.60
2019-06-26T12:05:14.433Z,6.50
2019-06-26T12:08:18.468Z,6.60
2019-06-26T12:11:20.602Z,6.50
2019-06-26T12:14:22.523Z,6.40
2019-06-26T12:17:24.815Z,6.00
2019-06-26T12:20:26.866Z,6.00
2019-06-26T12:23:28.979Z,7.00
2019-06-26T12:26:30.907Z,7.10
2019-06-26T12:29:33.111Z,6.10
2019-06-26T12:32:41.707Z,6.20
2019-06-26T12:36:02.965Z,6.10
2019-06-26T12:39:05.047Z,6.00
2019-06-26T12:42:07.206Z,5.90
2019-06-26T12:45:16.895Z,5.60
2019-06-26T12:48:22.830Z,5.50
2019-06-26T12:51:24.802Z,5.40
2019-06-26T12:54:29.150Z,4.70
2019-06-26T12:57:31.159Z,4.80
2019-06-26T13:00:33.592Z,4.20
2019-06-26T13:03:35.873Z,4.30
2019-06-26T13:06:37.890Z,4.40
2019-06-26T13:09:40.041Z,5.10
2019-06-26T13:12:45.852Z,4.50
2019-06-26T13:15:50.878Z,4.90
2019-06-26T13:18:53.477Z,4.50
2019-06-26T13:21:55.848Z,4.60
2019-06-26T13:24:57.911Z,4.00
2019-06-26T13:27:59.919Z,4.50
2019-06-26T13:31:01.993Z,4.40
2019-06-26T13:34:04.191Z,4.40
2019-06-26T13:37:07.384Z,4.50
2019-06-26T13:40:09.517Z,3.90
2019-06-26T13:43:12.258Z,3.90
2019-06-26T13:46:15.202Z,4.00
2019-06-26T13:49:17.154Z,4.00
2019-06-26T13:52:19.127Z,4.00
2019-06-26T13:55:28.081Z,3.70
2019-06-26T13:58:30.128Z,4.20
2019-06-26T14:01:32.148Z,3.80
2019-06-26T14:04:34.254Z,4.20
2019-06-26T14:07:39.344Z,3.70
2019-06-26T14:10:41.320Z,3.50
2019-06-26T14:13:43.352Z,4.00
2019-06-26T14:16:45.378Z,3.70
2019-06-26T14:19:47.463Z,3.60
2019-06-26T14:22:50.431Z,4.10
2019-06-26T14:25:52.529Z,4.20
2019-06-26T14:28:54.620Z,3.90
2019-06-26T14:31:56.719Z,3.90
2019-06-26T14:34:58.803Z,3.80
2019-06-26T14:38:00.839Z,3.60
2019-06-26T14:41:02.908Z,3.90
2019-06-26T14:44:04.995Z,3.80
2019-06-26T14:47:06.988Z,3.80
2019-06-26T14:50:09.173Z,3.90
2019-06-26T14:53:11.703Z,4.10
2019-06-26T14:56:13.833Z,4.50
2019-06-26T14:59:15.808Z,3.20
2019-06-26T15:02:17.846Z,4.00
2019-06-26T15:05:19.865Z,4.10
2019-06-26T15:08:21.983Z,4.40
2019-06-26T15:11:24.106Z,4.50
2019-06-26T15:14:26.083Z,4.00
2019-06-26T15:17:28.087Z,4.40
2019-06-26T15:20:32.692Z,4.50
2019-06-26T15:23:34.845Z,5.00
2019-06-26T15:26:36.836Z,4.40
2019-06-26T15:29:41.386Z,4.60
2019-06-26T15:32:43.386Z,4.40
2019-06-26T15:35:45.455Z,4.50
2019-06-26T15:38:47.476Z,5.10
2019-06-26T15:41:49.469Z,4.70
2019-06-26T15:44:51.585Z,4.70
2019-06-26T15:47:53.543Z,4.80
2019-06-26T15:50:55.589Z,5.20
2019-06-26T15:53:59.919Z,4.30
2019-06-26T15:57:02.152Z,3.90
2019-06-26T16:00:31.088Z,5.70
2019-06-26T16:03:33.085Z,4.70
2019-06-26T16:06:35.123Z,4.70
2019-06-26T16:09:37.207Z,4.60
2019-06-26T16:13:13.142Z,4.80
2019-06-26T16:16:45.332Z,4.80
2019-06-26T16:19:47.292Z,4.50
2019-06-26T16:23:03.373Z,5.20
2019-06-26T16:26:05.432Z,5.20
2019-06-26T16:29:07.495Z,5.10
2019-06-26T16:32:09.535Z,5.70
2019-06-26T16:35:12.391Z,6.00
2019-06-26T16:38:14.944Z,6.20
2019-06-26T16:41:16.930Z,5.30
2019-06-26T16:44:19.000Z,5.60
2019-06-26T16:47:20.977Z,5.40
2019-06-26T16:50:23.086Z,5.60
2019-06-26T16:53:25.274Z,5.40
2019-06-26T16:56:32.547Z,5.60
2019-06-26T16:59:34.804Z,5.90
2019-06-26T17:02:37.834Z,5.30
2019-06-26T17:05:39.889Z,5.40
2019-06-26T17:08:44.532Z,5.50
2019-06-26T17:11:46.568Z,5.80
2019-06-26T17:14:48.730Z,5.50
2019-06-26T17:17:51.102Z,6.30
2019-06-26T17:20:58.201Z,5.80
2019-06-26T17:24:00.428Z,5.60
2019-06-26T17:27:02.638Z,4.70
2019-06-26T17:30:04.731Z,5.60
2019-06-26T17:33:07.553Z,6.00
2019-06-26T17:36:09.574Z,5.50
2019-06-26T17:39:11.651Z,4.70
2019-06-26T17:42:14.891Z,6.30
2019-06-26T17:45:19.430Z,5.90
2019-06-26T17:48:22.964Z,5.90
2019-06-26T17:51:24.949Z,5.70
2019-06-26T17:54:27.090Z,5.50
2019-06-26T17:57:29.073Z,5.80
2019-06-26T18:00:31.088Z,5.10
2019-06-26T18:03:34.983Z,5.30
2019-06-26T18:06:36.974Z,5.20
2019-06-26T18:09:43.149Z,6.10
2019-06-26T18:12:45.150Z,5.10
2019-06-26T18:15:47.172Z,5.50
2019-06-26T18:18:49.356Z,5.50
2019-06-26T18:21:51.346Z,5.40
2019-06-26T18:24:53.483Z,5.50
2019-06-26T18:27:55.502Z,5.70
2019-06-26T18:30:57.507Z,5.50
2019-06-26T18:33:59.613Z,6.00
2019-06-26T18:37:04.397Z,5.60
2019-06-26T18:40:09.722Z,5.00
2019-06-26T18:43:15.042Z,5.30
2019-06-26T18:46:17.292Z,5.90
2019-06-26T18:49:19.718Z,6.20
2019-06-26T18:52:21.707Z,4.80
2019-06-26T18:55:23.762Z,5.50
2019-06-26T18:58:25.737Z,5.70
2019-06-26T19:01:27.660Z,5.50
2019-06-26T19:04:29.672Z,4.80
2019-06-26T19:07:31.739Z,4.90
2019-06-26T19:10:36.460Z,4.70
2019-06-26T19:13:39.567Z,5.70
2019-06-26T19:16:44.149Z,5.20
2019-06-26T19:19:46.133Z,5.50
2019-06-26T19:22:48.115Z,5.50
2019-06-26T19:25:50.440Z,5.30
2019-06-26T19:28:53.854Z,5.40
2019-06-26T19:31:55.817Z,5.50
2019-06-26T19:34:57.878Z,6.00
2019-06-26T19:38:09.779Z,5.50
2019-06-26T19:41:11.942Z,5.10
2019-06-26T19:44:13.917Z,5.70
2019-06-26T19:47:15.882Z,5.10
2019-06-26T19:50:17.971Z,4.70
2019-06-26T19:53:22.703Z,5.50
2019-06-26T19:56:24.712Z,5.40
2019-06-26T19:59:26.696Z,8.10
2019-06-26T20:02:28.621Z,4.70
2019-06-26T20:05:38.109Z,6.40
2019-06-26T20:08:52.088Z,5.40
2019-06-26T20:12:00.404Z,5.20
2019-06-26T20:15:02.510Z,5.00
2019-06-26T20:18:04.936Z,5.60
2019-06-26T20:21:09.467Z,5.40
2019-06-26T20:24:14.384Z,5.00
2019-06-26T20:27:16.621Z,5.50
2019-06-26T20:30:18.790Z,6.00
2019-06-26T20:33:29.579Z,4.80
2019-06-26T20:36:31.621Z,5.50
2019-06-26T20:39:33.780Z,5.10
2019-06-26T20:42:35.850Z,6.90
2019-06-26T20:45:38.049Z,9.60
2019-06-26T20:48:40.137Z,9.70
2019-06-26T20:51:42.216Z,6.40
2019-06-26T20:54:56.722Z,5.60
2019-06-26T20:58:05.114Z,5.60
2019-06-26T21:01:07.287Z,6.40
2019-06-26T21:04:09.417Z,7.60
2019-06-26T21:07:11.487Z,4.50
2019-06-26T21:10:18.681Z,6.00
2019-06-26T21:13:20.836Z,8.30
2019-06-26T21:16:23.958Z,6.70
2019-06-26T21:19:25.994Z,6.00
2019-06-26T21:22:30.647Z,4.70
2019-06-26T21:25:49.899Z,5.10
2019-06-26T21:28:52.010Z,5.10
2019-06-26T21:31:54.271Z,5.90
2019-06-26T21:34:56.339Z,5.70
2019-06-26T21:37:58.465Z,5.70
2019-06-26T21:41:00.549Z,4.90
2019-06-26T21:44:02.621Z,4.10
2019-06-26T21:47:04.858Z,5.40
2019-06-26T21:50:06.902Z,5.60
2019-06-26T21:53:09.438Z,4.60
2019-06-26T21:56:11.656Z,5.00
2019-06-26T21:59:57.658Z,5.40
2019-06-26T22:02:59.693Z,5.80
2019-06-26T22:06:01.980Z,4.80
2019-06-26T22:09:04.180Z,4.70
2019-06-26T22:12:07.133Z,5.00
2019-06-26T22:15:09.247Z,4.90
2019-06-26T22:18:11.607Z,4.90
2019-06-26T22:21:13.671Z,5.00
2019-06-26T22:24:15.857Z,6.20
2019-06-26T22:27:20.475Z,8.40
2019-06-26T22:30:22.670Z,6.80
2019-06-26T22:33:25.909Z,5.30
2019-06-26T22:36:27.956Z,6.10
2019-06-26T22:39:30.031Z,5.00
2019-06-26T22:42:37.138Z,6.40
2019-06-26T22:45:39.457Z,5.70
2019-06-26T22:48:41.562Z,4.50
2019-06-26T22:51:43.650Z,5.50
2019-06-26T22:54:45.746Z,5.20
2019-06-26T22:57:47.787Z,5.10
2019-06-26T23:00:49.984Z,5.00
2019-06-26T23:03:52.094Z,5.60
2019-06-26T23:06:54.286Z,6.80
2019-06-26T23:09:59.271Z,5.30
2019-06-26T23:13:01.320Z,4.80
2019-06-26T23:16:03.515Z,5.00
2019-06-26T23:19:05.642Z,5.90
2019-06-26T23:22:07.669Z,6.20
2019-06-26T23:25:09.850Z,4.80
2019-06-26T23:28:11.931Z,5.70
2019-06-26T23:31:15.127Z,5.40
2019-06-26T23:34:17.274Z,5.10
2019-06-26T23:37:19.310Z,5.10
2019-06-26T23:40:21.355Z,6.50
2019-06-26T23:43:23.426Z,4.90
2019-06-26T23:46:25.585Z,5.50
2019-06-26T23:49:27.724Z,6.00
2019-06-26T23:52:29.781Z,5.40
2019-06-26T23:55:34.615Z,6.10
2019-06-26T23:58:39.200Z,5.40
